sensor_id;sensor_type;location;lat;lon;timestamp;P1;durP1;ratioP1;P2;durP2;ratioP2
7657;SDS011;8462;53.156;8.220;2022-10-18T00:01:19;25.70;;;15.30;;
7657;SDS011;8462;53.156;8.220;2022-10-18T00:03:46;29.93;;;16.93;;
7657;SDS011;8462;53.156;8.220;2022-10-18T00:06:15;33.93;;;16.00;;
7657;SDS011;8462;53.156;8.220;2022-10-18T00:08:41;34.60;;;16.80;;
7657;SDS011;8462;53.156;8.220;2022-10-18T00:11:08;29.57;;;15.70;;
7657;SDS011;8462;53.156;8.220;2022-10-18T00:13:35;28.83;;;15.87;;
7657;SDS011;8462;53.156;8.220;2022-10-18T00:16:04;35.63;;;16.07;;
7657;SDS011;8462;53.156;8.220;2022-10-18T00:18:35;34.83;;;16.90;;
7657;SDS011;8462;53.156;8.220;2022-10-18T00:21:02;37.23;;;17.80;;
7657;SDS011;8462;53.156;8.220;2022-10-18T00:23:32;29.43;;;15.50;;
7657;SDS011;8462;53.156;8.220;2022-10-18T00:26:00;28.97;;;15.67;;
7657;SDS011;8462;53.156;8.220;2022-10-18T00:28:29;31.67;;;16.30;;
7657;SDS011;8462;53.156;8.220;2022-10-18T00:30:56;36.07;;;17.63;;
7657;SDS011;8462;53.156;8.220;2022-10-18T00:33:23;31.80;;;17.57;;
7657;SDS011;8462;53.156;8.220;2022-10-18T00:35:50;39.20;;;17.50;;
7657;SDS011;8462;53.156;8.220;2022-10-18T00:38:17;31.97;;;16.87;;
7657;SDS011;8462;53.156;8.220;2022-10-18T00:40:45;36.10;;;16.73;;
7657;SDS011;8462;53.156;8.220;2022-10-18T00:43:13;37.07;;;16.60;;
7657;SDS011;8462;53.156;8.220;2022-10-18T00:45:41;36.17;;;18.10;;
7657;SDS011;8462;53.156;8.220;2022-10-18T00:48:08;38.67;;;18.87;;
7657;SDS011;8462;53.156;8.220;2022-10-18T00:50:36;40.20;;;18.03;;
7657;SDS011;8462;53.156;8.220;2022-10-18T00:53:05;39.13;;;17.47;;
7657;SDS011;8462;53.156;8.220;2022-10-18T00:55:35;38.87;;;19.03;;
7657;SDS011;8462;53.156;8.220;2022-10-18T00:58:04;36.00;;;18.30;;
7657;SDS011;8462;53.156;8.220;2022-10-18T01:00:31;41.30;;;17.70;;
7657;SDS011;8462;53.156;8.220;2022-10-18T01:03:02;35.97;;;17.73;;
7657;SDS011;8462;53.156;8.220;2022-10-18T01:05:30;36.80;;;17.80;;
7657;SDS011;8462;53.156;8.220;2022-10-18T01:08:02;42.97;;;19.30;;
7657;SDS011;8462;53.156;8.220;2022-10-18T01:10:40;37.60;;;19.47;;
7657;SDS011;8462;53.156;8.220;2022-10-18T01:13:22;36.73;;;18.07;;
7657;SDS011;8462;53.156;8.220;2022-10-18T01:15:59;38.80;;;17.50;;
7657;SDS011;8462;53.156;8.220;2022-10-18T01:18:33;33.93;;;18.57;;
7657;SDS011;8462;53.156;8.220;2022-10-18T01:21:08;39.13;;;17.40;;
7657;SDS011;8462;53.156;8.220;2022-10-18T01:23:56;42.67;;;18.50;;
7657;SDS011;8462;53.156;8.220;2022-10-18T01:27:02;33.97;;;17.53;;
7657;SDS011;8462;53.156;8.220;2022-10-18T01:29:46;34.97;;;17.40;;
7657;SDS011;8462;53.156;8.220;2022-10-18T01:32:25;37.23;;;17.83;;
7657;SDS011;8462;53.156;8.220;2022-10-18T01:34:57;34.43;;;17.93;;
7657;SDS011;8462;53.156;8.220;2022-10-18T01:37:26;39.60;;;18.27;;
7657;SDS011;8462;53.156;8.220;2022-10-18T01:39:57;33.67;;;16.73;;
7657;SDS011;8462;53.156;8.220;2022-10-18T01:42:27;37.33;;;16.90;;
7657;SDS011;8462;53.156;8.220;2022-10-18T01:44:56;41.50;;;17.07;;
7657;SDS011;8462;53.156;8.220;2022-10-18T01:47:26;31.83;;;16.53;;
7657;SDS011;8462;53.156;8.220;2022-10-18T01:49:55;31.87;;;16.23;;
7657;SDS011;8462;53.156;8.220;2022-10-18T01:52:25;30.77;;;16.37;;
7657;SDS011;8462;53.156;8.220;2022-10-18T01:54:52;39.03;;;17.60;;
7657;SDS011;8462;53.156;8.220;2022-10-18T01:57:21;33.17;;;16.70;;
7657;SDS011;8462;53.156;8.220;2022-10-18T01:59:55;37.73;;;17.90;;
7657;SDS011;8462;53.156;8.220;2022-10-18T02:02:40;33.23;;;16.20;;
7657;SDS011;8462;53.156;8.220;2022-10-18T02:05:13;32.40;;;16.33;;
7657;SDS011;8462;53.156;8.220;2022-10-18T02:07:47;36.77;;;16.30;;
7657;SDS011;8462;53.156;8.220;2022-10-18T02:10:19;37.47;;;16.33;;
7657;SDS011;8462;53.156;8.220;2022-10-18T02:12:50;29.23;;;15.40;;
7657;SDS011;8462;53.156;8.220;2022-10-18T02:15:20;33.40;;;16.57;;
7657;SDS011;8462;53.156;8.220;2022-10-18T02:17:52;34.87;;;15.97;;
7657;SDS011;8462;53.156;8.220;2022-10-18T02:20:21;37.30;;;17.73;;
7657;SDS011;8462;53.156;8.220;2022-10-18T02:22:51;31.20;;;17.40;;
7657;SDS011;8462;53.156;8.220;2022-10-18T02:25:21;37.93;;;17.30;;
7657;SDS011;8462;53.156;8.220;2022-10-18T02:27:52;41.07;;;17.63;;
7657;SDS011;8462;53.156;8.220;2022-10-18T02:30:20;37.60;;;16.13;;
7657;SDS011;8462;53.156;8.220;2022-10-18T02:32:53;31.70;;;16.23;;
7657;SDS011;8462;53.156;8.220;2022-10-18T02:35:24;40.97;;;18.40;;
7657;SDS011;8462;53.156;8.220;2022-10-18T02:37:55;38.10;;;17.83;;
7657;SDS011;8462;53.156;8.220;2022-10-18T02:40:24;41.23;;;17.80;;
7657;SDS011;8462;53.156;8.220;2022-10-18T02:42:52;47.33;;;17.97;;
7657;SDS011;8462;53.156;8.220;2022-10-18T02:45:21;40.93;;;17.63;;
7657;SDS011;8462;53.156;8.220;2022-10-18T02:47:49;47.23;;;19.80;;
7657;SDS011;8462;53.156;8.220;2022-10-18T02:50:17;48.60;;;19.23;;
7657;SDS011;8462;53.156;8.220;2022-10-18T02:52:44;49.77;;;19.47;;
7657;SDS011;8462;53.156;8.220;2022-10-18T02:55:11;54.87;;;19.60;;
7657;SDS011;8462;53.156;8.220;2022-10-18T02:57:38;114.47;;;24.13;;
7657;SDS011;8462;53.156;8.220;2022-10-18T03:00:05;369.10;;;37.77;;
7657;SDS011;8462;53.156;8.220;2022-10-18T03:02:33;134.13;;;24.77;;
7657;SDS011;8462;53.156;8.220;2022-10-18T03:05:00;157.90;;;26.67;;
7657;SDS011;8462;53.156;8.220;2022-10-18T03:07:29;132.43;;;25.67;;
7657;SDS011;8462;53.156;8.220;2022-10-18T03:09:55;95.97;;;21.60;;
7657;SDS011;8462;53.156;8.220;2022-10-18T03:12:22;226.37;;;32.33;;
7657;SDS011;8462;53.156;8.220;2022-10-18T03:14:49;166.80;;;26.97;;
7657;SDS011;8462;53.156;8.220;2022-10-18T03:17:16;185.30;;;28.33;;
7657;SDS011;8462;53.156;8.220;2022-10-18T03:19:43;143.30;;;25.87;;
7657;SDS011;8462;53.156;8.220;2022-10-18T03:22:10;137.00;;;27.57;;
7657;SDS011;8462;53.156;8.220;2022-10-18T03:24:38;180.53;;;24.20;;
7657;SDS011;8462;53.156;8.220;2022-10-18T03:27:05;99.07;;;20.57;;
7657;SDS011;8462;53.156;8.220;2022-10-18T03:29:32;114.73;;;23.57;;
7657;SDS011;8462;53.156;8.220;2022-10-18T03:31:59;162.03;;;24.90;;
7657;SDS011;8462;53.156;8.220;2022-10-18T03:34:25;82.70;;;19.73;;
7657;SDS011;8462;53.156;8.220;2022-10-18T03:36:52;96.83;;;21.47;;
7657;SDS011;8462;53.156;8.220;2022-10-18T03:39:21;88.00;;;20.97;;
7657;SDS011;8462;53.156;8.220;2022-10-18T03:41:49;67.83;;;18.57;;
7657;SDS011;8462;53.156;8.220;2022-10-18T03:44:16;75.23;;;18.97;;
7657;SDS011;8462;53.156;8.220;2022-10-18T03:46:43;80.53;;;20.57;;
7657;SDS011;8462;53.156;8.220;2022-10-18T03:49:10;56.97;;;19.93;;
7657;SDS011;8462;53.156;8.220;2022-10-18T03:51:37;56.00;;;18.63;;
7657;SDS011;8462;53.156;8.220;2022-10-18T03:54:04;114.57;;;22.53;;
7657;SDS011;8462;53.156;8.220;2022-10-18T03:56:32;71.60;;;19.37;;
7657;SDS011;8462;53.156;8.220;2022-10-18T03:59:00;53.80;;;18.13;;
7657;SDS011;8462;53.156;8.220;2022-10-18T04:01:28;105.83;;;22.17;;
7657;SDS011;8462;53.156;8.220;2022-10-18T04:03:55;79.43;;;19.73;;
7657;SDS011;8462;53.156;8.220;2022-10-18T04:06:22;68.87;;;19.30;;
7657;SDS011;8462;53.156;8.220;2022-10-18T04:08:49;126.77;;;22.10;;
7657;SDS011;8462;53.156;8.220;2022-10-18T04:11:16;86.83;;;18.83;;
7657;SDS011;8462;53.156;8.220;2022-10-18T04:13:43;69.63;;;18.57;;
7657;SDS011;8462;53.156;8.220;2022-10-18T04:16:11;64.30;;;16.73;;
7657;SDS011;8462;53.156;8.220;2022-10-18T04:18:38;93.47;;;19.90;;
7657;SDS011;8462;53.156;8.220;2022-10-18T04:21:05;60.53;;;17.27;;
7657;SDS011;8462;53.156;8.220;2022-10-18T04:23:32;57.53;;;17.43;;
7657;SDS011;8462;53.156;8.220;2022-10-18T04:25:59;132.17;;;21.33;;
7657;SDS011;8462;53.156;8.220;2022-10-18T04:28:25;52.80;;;15.47;;
7657;SDS011;8462;53.156;8.220;2022-10-18T04:30:52;79.03;;;19.00;;
7657;SDS011;8462;53.156;8.220;2022-10-18T04:33:21;49.60;;;16.57;;
7657;SDS011;8462;53.156;8.220;2022-10-18T04:35:49;57.97;;;19.60;;
7657;SDS011;8462;53.156;8.220;2022-10-18T04:38:17;75.47;;;26.23;;
7657;SDS011;8462;53.156;8.220;2022-10-18T04:40:45;64.33;;;18.03;;
7657;SDS011;8462;53.156;8.220;2022-10-18T04:43:12;43.03;;;16.90;;
7657;SDS011;8462;53.156;8.220;2022-10-18T04:45:39;80.03;;;19.50;;
7657;SDS011;8462;53.156;8.220;2022-10-18T04:48:06;44.83;;;17.00;;
7657;SDS011;8462;53.156;8.220;2022-10-18T04:50:34;214.53;;;25.67;;
7657;SDS011;8462;53.156;8.220;2022-10-18T04:53:12;91.83;;;20.33;;
7657;SDS011;8462;53.156;8.220;2022-10-18T04:55:42;73.27;;;19.17;;
7657;SDS011;8462;53.156;8.220;2022-10-18T04:58:10;87.03;;;19.47;;
7657;SDS011;8462;53.156;8.220;2022-10-18T05:00:37;118.60;;;20.53;;
7657;SDS011;8462;53.156;8.220;2022-10-18T05:03:11;62.37;;;17.13;;
7657;SDS011;8462;53.156;8.220;2022-10-18T05:05:40;178.77;;;25.43;;
7657;SDS011;8462;53.156;8.220;2022-10-18T05:08:12;179.47;;;22.33;;
7657;SDS011;8462;53.156;8.220;2022-10-18T05:10:39;53.50;;;15.63;;
7657;SDS011;8462;53.156;8.220;2022-10-18T05:13:06;237.70;;;29.33;;
7657;SDS011;8462;53.156;8.220;2022-10-18T05:15:33;136.60;;;23.20;;
7657;SDS011;8462;53.156;8.220;2022-10-18T05:18:00;46.40;;;16.93;;
7657;SDS011;8462;53.156;8.220;2022-10-18T05:20:27;72.03;;;16.87;;
7657;SDS011;8462;53.156;8.220;2022-10-18T05:22:55;71.13;;;19.77;;
7657;SDS011;8462;53.156;8.220;2022-10-18T05:25:22;76.33;;;18.67;;
7657;SDS011;8462;53.156;8.220;2022-10-18T05:27:50;43.40;;;15.83;;
7657;SDS011;8462;53.156;8.220;2022-10-18T05:30:17;90.00;;;19.53;;
7657;SDS011;8462;53.156;8.220;2022-10-18T05:32:45;75.70;;;18.80;;
7657;SDS011;8462;53.156;8.220;2022-10-18T05:35:11;83.47;;;18.47;;
7657;SDS011;8462;53.156;8.220;2022-10-18T05:37:38;115.97;;;20.90;;
7657;SDS011;8462;53.156;8.220;2022-10-18T05:40:07;58.70;;;18.00;;
7657;SDS011;8462;53.156;8.220;2022-10-18T05:42:35;54.53;;;16.07;;
7657;SDS011;8462;53.156;8.220;2022-10-18T05:45:02;54.90;;;16.17;;
7657;SDS011;8462;53.156;8.220;2022-10-18T05:47:29;81.50;;;17.67;;
7657;SDS011;8462;53.156;8.220;2022-10-18T05:49:58;47.77;;;15.60;;
7657;SDS011;8462;53.156;8.220;2022-10-18T05:52:25;46.70;;;16.90;;
7657;SDS011;8462;53.156;8.220;2022-10-18T05:54:52;64.70;;;15.00;;
7657;SDS011;8462;53.156;8.220;2022-10-18T05:57:21;41.33;;;14.67;;
7657;SDS011;8462;53.156;8.220;2022-10-18T05:59:48;47.80;;;15.47;;
7657;SDS011;8462;53.156;8.220;2022-10-18T06:02:15;55.13;;;15.87;;
7657;SDS011;8462;53.156;8.220;2022-10-18T06:04:42;34.97;;;12.53;;
7657;SDS011;8462;53.156;8.220;2022-10-18T06:07:10;40.07;;;13.10;;
7657;SDS011;8462;53.156;8.220;2022-10-18T06:09:37;102.43;;;16.80;;
7657;SDS011;8462;53.156;8.220;2022-10-18T06:12:04;44.40;;;13.70;;
7657;SDS011;8462;53.156;8.220;2022-10-18T06:14:35;61.23;;;13.63;;
7657;SDS011;8462;53.156;8.220;2022-10-18T06:17:02;37.37;;;12.70;;
7657;SDS011;8462;53.156;8.220;2022-10-18T06:19:30;46.83;;;14.20;;
7657;SDS011;8462;53.156;8.220;2022-10-18T06:21:58;33.07;;;14.23;;
7657;SDS011;8462;53.156;8.220;2022-10-18T06:24:25;55.87;;;15.50;;
7657;SDS011;8462;53.156;8.220;2022-10-18T06:26:51;39.70;;;12.83;;
7657;SDS011;8462;53.156;8.220;2022-10-18T06:29:18;53.77;;;13.87;;
7657;SDS011;8462;53.156;8.220;2022-10-18T06:31:47;44.13;;;13.43;;
7657;SDS011;8462;53.156;8.220;2022-10-18T06:34:14;51.03;;;14.60;;
7657;SDS011;8462;53.156;8.220;2022-10-18T06:36:40;61.03;;;13.80;;
7657;SDS011;8462;53.156;8.220;2022-10-18T06:39:07;31.70;;;12.93;;
7657;SDS011;8462;53.156;8.220;2022-10-18T06:41:35;49.07;;;13.30;;
7657;SDS011;8462;53.156;8.220;2022-10-18T06:44:17;42.43;;;13.57;;
7657;SDS011;8462;53.156;8.220;2022-10-18T06:46:44;28.80;;;12.00;;
7657;SDS011;8462;53.156;8.220;2022-10-18T06:49:13;32.60;;;11.97;;
7657;SDS011;8462;53.156;8.220;2022-10-18T06:51:41;28.83;;;11.67;;
7657;SDS011;8462;53.156;8.220;2022-10-18T06:54:09;47.23;;;14.87;;
7657;SDS011;8462;53.156;8.220;2022-10-18T06:56:36;34.17;;;13.10;;
7657;SDS011;8462;53.156;8.220;2022-10-18T06:59:04;30.93;;;13.33;;
7657;SDS011;8462;53.156;8.220;2022-10-18T07:01:31;29.70;;;12.73;;
7657;SDS011;8462;53.156;8.220;2022-10-18T07:04:01;38.53;;;11.27;;
7657;SDS011;8462;53.156;8.220;2022-10-18T07:06:28;26.47;;;11.50;;
7657;SDS011;8462;53.156;8.220;2022-10-18T07:08:55;29.77;;;11.13;;
7657;SDS011;8462;53.156;8.220;2022-10-18T07:11:23;22.37;;;10.50;;
7657;SDS011;8462;53.156;8.220;2022-10-18T07:13:52;29.70;;;11.73;;
7657;SDS011;8462;53.156;8.220;2022-10-18T07:16:20;74.17;;;19.40;;
7657;SDS011;8462;53.156;8.220;2022-10-18T07:18:48;28.47;;;12.27;;
7657;SDS011;8462;53.156;8.220;2022-10-18T07:21:19;27.10;;;11.43;;
7657;SDS011;8462;53.156;8.220;2022-10-18T07:23:47;24.93;;;11.43;;
7657;SDS011;8462;53.156;8.220;2022-10-18T07:26:15;30.27;;;11.27;;
7657;SDS011;8462;53.156;8.220;2022-10-18T07:28:44;22.40;;;10.47;;
7657;SDS011;8462;53.156;8.220;2022-10-18T07:31:13;38.13;;;12.37;;
7657;SDS011;8462;53.156;8.220;2022-10-18T07:33:40;28.30;;;11.97;;
7657;SDS011;8462;53.156;8.220;2022-10-18T07:36:08;30.33;;;12.60;;
7657;SDS011;8462;53.156;8.220;2022-10-18T07:38:38;27.57;;;12.13;;
7657;SDS011;8462;53.156;8.220;2022-10-18T07:41:06;36.40;;;12.13;;
7657;SDS011;8462;53.156;8.220;2022-10-18T07:43:35;27.37;;;10.50;;
7657;SDS011;8462;53.156;8.220;2022-10-18T07:46:03;30.67;;;12.73;;
7657;SDS011;8462;53.156;8.220;2022-10-18T07:48:30;22.63;;;10.90;;
7657;SDS011;8462;53.156;8.220;2022-10-18T07:50:58;27.83;;;11.40;;
7657;SDS011;8462;53.156;8.220;2022-10-18T07:53:25;33.77;;;12.20;;
7657;SDS011;8462;53.156;8.220;2022-10-18T07:55:56;26.27;;;12.00;;
7657;SDS011;8462;53.156;8.220;2022-10-18T07:58:24;39.57;;;12.27;;
7657;SDS011;8462;53.156;8.220;2022-10-18T08:00:52;22.97;;;10.77;;
7657;SDS011;8462;53.156;8.220;2022-10-18T08:03:19;28.20;;;11.70;;
7657;SDS011;8462;53.156;8.220;2022-10-18T08:05:50;40.90;;;11.23;;
7657;SDS011;8462;53.156;8.220;2022-10-18T08:08:18;23.47;;;11.07;;
7657;SDS011;8462;53.156;8.220;2022-10-18T08:10:45;27.10;;;11.80;;
7657;SDS011;8462;53.156;8.220;2022-10-18T08:13:13;51.33;;;13.70;;
7657;SDS011;8462;53.156;8.220;2022-10-18T08:15:40;31.13;;;10.97;;
7657;SDS011;8462;53.156;8.220;2022-10-18T08:18:08;39.07;;;11.83;;
7657;SDS011;8462;53.156;8.220;2022-10-18T08:20:35;34.67;;;9.97;;
7657;SDS011;8462;53.156;8.220;2022-10-18T08:23:02;39.40;;;12.20;;
7657;SDS011;8462;53.156;8.220;2022-10-18T08:25:29;34.20;;;13.13;;
7657;SDS011;8462;53.156;8.220;2022-10-18T08:27:58;14.57;;;9.07;;
7657;SDS011;8462;53.156;8.220;2022-10-18T08:30:27;14.80;;;8.93;;
7657;SDS011;8462;53.156;8.220;2022-10-18T08:32:54;17.03;;;8.70;;
7657;SDS011;8462;53.156;8.220;2022-10-18T08:35:21;18.67;;;9.43;;
7657;SDS011;8462;53.156;8.220;2022-10-18T08:37:47;16.90;;;9.10;;
7657;SDS011;8462;53.156;8.220;2022-10-18T08:40:15;16.10;;;8.57;;
7657;SDS011;8462;53.156;8.220;2022-10-18T08:45:36;20.47;;;8.93;;
7657;SDS011;8462;53.156;8.220;2022-10-18T08:48:06;18.33;;;8.23;;
7657;SDS011;8462;53.156;8.220;2022-10-18T08:50:40;12.40;;;8.17;;
7657;SDS011;8462;53.156;8.220;2022-10-18T08:53:11;11.60;;;7.37;;
7657;SDS011;8462;53.156;8.220;2022-10-18T08:55:44;11.37;;;7.60;;
7657;SDS011;8462;53.156;8.220;2022-10-18T08:58:16;12.57;;;6.83;;
7657;SDS011;8462;53.156;8.220;2022-10-18T09:00:49;12.27;;;7.93;;
7657;SDS011;8462;53.156;8.220;2022-10-18T09:03:37;11.30;;;7.33;;
7657;SDS011;8462;53.156;8.220;2022-10-18T09:06:22;11.17;;;7.23;;
7657;SDS011;8462;53.156;8.220;2022-10-18T09:09:11;12.63;;;7.63;;
7657;SDS011;8462;53.156;8.220;2022-10-18T09:11:53;14.57;;;7.70;;
7657;SDS011;8462;53.156;8.220;2022-10-18T09:14:34;15.33;;;9.13;;
7657;SDS011;8462;53.156;8.220;2022-10-18T09:17:16;13.33;;;7.93;;
7657;SDS011;8462;53.156;8.220;2022-10-18T09:19:56;12.80;;;7.73;;
7657;SDS011;8462;53.156;8.220;2022-10-18T09:22:51;12.33;;;6.77;;
7657;SDS011;8462;53.156;8.220;2022-10-18T09:25:22;11.60;;;7.07;;
7657;SDS011;8462;53.156;8.220;2022-10-18T09:27:51;13.23;;;7.70;;
7657;SDS011;8462;53.156;8.220;2022-10-18T09:33:11;9.97;;;6.60;;
7657;SDS011;8462;53.156;8.220;2022-10-18T09:35:51;11.00;;;6.87;;
7657;SDS011;8462;53.156;8.220;2022-10-18T09:38:22;11.70;;;7.27;;
7657;SDS011;8462;53.156;8.220;2022-10-18T09:40:52;9.87;;;5.93;;
7657;SDS011;8462;53.156;8.220;2022-10-18T09:43:22;9.70;;;6.33;;
7657;SDS011;8462;53.156;8.220;2022-10-18T09:45:53;11.50;;;6.97;;
7657;SDS011;8462;53.156;8.220;2022-10-18T09:48:25;10.13;;;6.33;;
7657;SDS011;8462;53.156;8.220;2022-10-18T09:50:55;12.53;;;6.73;;
7657;SDS011;8462;53.156;8.220;2022-10-18T09:53:28;12.60;;;7.07;;
7657;SDS011;8462;53.156;8.220;2022-10-18T09:56:02;15.50;;;7.67;;
7657;SDS011;8462;53.156;8.220;2022-10-18T09:58:40;16.87;;;9.23;;
7657;SDS011;8462;53.156;8.220;2022-10-18T10:01:10;14.63;;;8.97;;
7657;SDS011;8462;53.156;8.220;2022-10-18T10:03:41;13.23;;;8.83;;
7657;SDS011;8462;53.156;8.220;2022-10-18T10:09:00;12.60;;;8.83;;
7657;SDS011;8462;53.156;8.220;2022-10-18T10:11:34;12.87;;;8.37;;
7657;SDS011;8462;53.156;8.220;2022-10-18T10:14:08;12.40;;;7.40;;
7657;SDS011;8462;53.156;8.220;2022-10-18T10:16:42;9.30;;;7.30;;
7657;SDS011;8462;53.156;8.220;2022-10-18T10:19:21;10.60;;;6.13;;
7657;SDS011;8462;53.156;8.220;2022-10-18T10:21:52;9.83;;;6.90;;
7657;SDS011;8462;53.156;8.220;2022-10-18T10:24:23;12.93;;;6.83;;
7657;SDS011;8462;53.156;8.220;2022-10-18T10:26:59;8.43;;;5.33;;
7657;SDS011;8462;53.156;8.220;2022-10-18T10:32:26;10.63;;;6.07;;
7657;SDS011;8462;53.156;8.220;2022-10-18T10:34:57;10.87;;;5.90;;
7657;SDS011;8462;53.156;8.220;2022-10-18T10:37:26;13.77;;;5.07;;
7657;SDS011;8462;53.156;8.220;2022-10-18T10:40:05;10.97;;;5.43;;
7657;SDS011;8462;53.156;8.220;2022-10-18T10:45:40;8.10;;;5.37;;
7657;SDS011;8462;53.156;8.220;2022-10-18T10:48:20;12.03;;;4.87;;
7657;SDS011;8462;53.156;8.220;2022-10-18T10:50:54;11.13;;;5.37;;
7657;SDS011;8462;53.156;8.220;2022-10-18T10:53:35;7.20;;;4.97;;
7657;SDS011;8462;53.156;8.220;2022-10-18T10:56:14;6.93;;;4.47;;
7657;SDS011;8462;53.156;8.220;2022-10-18T10:58:52;9.10;;;4.53;;
7657;SDS011;8462;53.156;8.220;2022-10-18T11:01:22;7.73;;;3.97;;
7657;SDS011;8462;53.156;8.220;2022-10-18T11:03:52;9.57;;;4.30;;
7657;SDS011;8462;53.156;8.220;2022-10-18T11:09:26;8.13;;;3.80;;
7657;SDS011;8462;53.156;8.220;2022-10-18T11:12:17;8.83;;;3.90;;
7657;SDS011;8462;53.156;8.220;2022-10-18T11:14:56;9.17;;;4.03;;
7657;SDS011;8462;53.156;8.220;2022-10-18T11:17:31;5.27;;;3.20;;
7657;SDS011;8462;53.156;8.220;2022-10-18T11:23:03;7.53;;;2.40;;
7657;SDS011;8462;53.156;8.220;2022-10-18T11:25:41;6.57;;;3.40;;
7657;SDS011;8462;53.156;8.220;2022-10-18T11:28:27;7.57;;;2.93;;
7657;SDS011;8462;53.156;8.220;2022-10-18T11:31:07;9.10;;;2.93;;
7657;SDS011;8462;53.156;8.220;2022-10-18T11:33:43;6.17;;;3.00;;
7657;SDS011;8462;53.156;8.220;2022-10-18T11:36:17;6.93;;;2.73;;
7657;SDS011;8462;53.156;8.220;2022-10-18T11:38:52;7.27;;;2.50;;
7657;SDS011;8462;53.156;8.220;2022-10-18T11:41:33;6.27;;;3.20;;
7657;SDS011;8462;53.156;8.220;2022-10-18T11:44:07;6.80;;;3.00;;
7657;SDS011;8462;53.156;8.220;2022-10-18T11:46:46;6.80;;;2.93;;
7657;SDS011;8462;53.156;8.220;2022-10-18T11:49:26;3.60;;;2.70;;
7657;SDS011;8462;53.156;8.220;2022-10-18T11:52:07;8.70;;;2.50;;
7657;SDS011;8462;53.156;8.220;2022-10-18T11:54:52;6.73;;;2.70;;
7657;SDS011;8462;53.156;8.220;2022-10-18T11:57:39;6.60;;;2.97;;
7657;SDS011;8462;53.156;8.220;2022-10-18T12:00:17;6.53;;;2.40;;
7657;SDS011;8462;53.156;8.220;2022-10-18T12:03:10;6.37;;;2.37;;
7657;SDS011;8462;53.156;8.220;2022-10-18T12:05:53;6.30;;;2.50;;
7657;SDS011;8462;53.156;8.220;2022-10-18T12:08:24;6.40;;;2.70;;
7657;SDS011;8462;53.156;8.220;2022-10-18T12:10:58;6.83;;;2.57;;
7657;SDS011;8462;53.156;8.220;2022-10-18T12:13:33;3.67;;;2.23;;
7657;SDS011;8462;53.156;8.220;2022-10-18T12:16:05;6.90;;;2.67;;
7657;SDS011;8462;53.156;8.220;2022-10-18T12:21:10;8.20;;;2.13;;
7657;SDS011;8462;53.156;8.220;2022-10-18T12:23:41;4.70;;;2.10;;
7657;SDS011;8462;53.156;8.220;2022-10-18T12:26:13;5.87;;;1.60;;
7657;SDS011;8462;53.156;8.220;2022-10-18T12:28:45;5.17;;;1.63;;
7657;SDS011;8462;53.156;8.220;2022-10-18T12:31:20;7.67;;;1.73;;
7657;SDS011;8462;53.156;8.220;2022-10-18T12:33:52;8.53;;;2.57;;
7657;SDS011;8462;53.156;8.220;2022-10-18T12:36:26;5.87;;;1.80;;
7657;SDS011;8462;53.156;8.220;2022-10-18T12:39:05;3.70;;;1.63;;
7657;SDS011;8462;53.156;8.220;2022-10-18T12:41:37;6.63;;;1.87;;
7657;SDS011;8462;53.156;8.220;2022-10-18T12:44:05;5.13;;;1.73;;
7657;SDS011;8462;53.156;8.220;2022-10-18T12:46:44;9.00;;;1.70;;
7657;SDS011;8462;53.156;8.220;2022-10-18T12:49:13;8.73;;;1.70;;
7657;SDS011;8462;53.156;8.220;2022-10-18T12:51:48;4.73;;;1.57;;
7657;SDS011;8462;53.156;8.220;2022-10-18T12:54:18;4.57;;;1.40;;
7657;SDS011;8462;53.156;8.220;2022-10-18T12:56:51;5.70;;;1.40;;
7657;SDS011;8462;53.156;8.220;2022-10-18T13:02:25;5.53;;;1.67;;
7657;SDS011;8462;53.156;8.220;2022-10-18T13:04:54;5.23;;;1.50;;
7657;SDS011;8462;53.156;8.220;2022-10-18T13:07:37;7.60;;;1.57;;
7657;SDS011;8462;53.156;8.220;2022-10-18T13:13:06;6.77;;;1.50;;
7657;SDS011;8462;53.156;8.220;2022-10-18T13:15:52;6.03;;;1.70;;
7657;SDS011;8462;53.156;8.220;2022-10-18T13:18:26;6.10;;;1.60;;
7657;SDS011;8462;53.156;8.220;2022-10-18T13:21:06;5.43;;;2.63;;
7657;SDS011;8462;53.156;8.220;2022-10-18T13:23:41;3.37;;;1.47;;
7657;SDS011;8462;53.156;8.220;2022-10-18T13:26:22;5.57;;;2.20;;
7657;SDS011;8462;53.156;8.220;2022-10-18T13:28:59;5.07;;;1.40;;
7657;SDS011;8462;53.156;8.220;2022-10-18T13:31:34;4.93;;;1.40;;
7657;SDS011;8462;53.156;8.220;2022-10-18T13:34:21;7.27;;;2.27;;
7657;SDS011;8462;53.156;8.220;2022-10-18T13:36:56;3.60;;;1.57;;
7657;SDS011;8462;53.156;8.220;2022-10-18T13:39:25;7.37;;;1.83;;
7657;SDS011;8462;53.156;8.220;2022-10-18T13:51:12;4.20;;;1.57;;
7657;SDS011;8462;53.156;8.220;2022-10-18T13:53:56;4.83;;;1.30;;
7657;SDS011;8462;53.156;8.220;2022-10-18T13:56:33;5.33;;;1.30;;
7657;SDS011;8462;53.156;8.220;2022-10-18T13:59:17;10.17;;;1.70;;
7657;SDS011;8462;53.156;8.220;2022-10-18T14:01:58;5.77;;;1.80;;
7657;SDS011;8462;53.156;8.220;2022-10-18T14:04:54;4.80;;;1.50;;
7657;SDS011;8462;53.156;8.220;2022-10-18T14:07:36;7.17;;;2.10;;
7657;SDS011;8462;53.156;8.220;2022-10-18T14:10:03;4.93;;;1.50;;
7657;SDS011;8462;53.156;8.220;2022-10-18T14:12:37;3.97;;;1.60;;
7657;SDS011;8462;53.156;8.220;2022-10-18T14:15:11;6.13;;;1.47;;
7657;SDS011;8462;53.156;8.220;2022-10-18T14:17:43;8.23;;;1.60;;
7657;SDS011;8462;53.156;8.220;2022-10-18T14:20:15;6.83;;;1.60;;
7657;SDS011;8462;53.156;8.220;2022-10-18T14:22:52;6.17;;;1.40;;
7657;SDS011;8462;53.156;8.220;2022-10-18T14:25:25;5.20;;;1.30;;
7657;SDS011;8462;53.156;8.220;2022-10-18T14:28:04;7.93;;;2.27;;
7657;SDS011;8462;53.156;8.220;2022-10-18T14:30:32;4.93;;;1.60;;
7657;SDS011;8462;53.156;8.220;2022-10-18T14:33:00;4.03;;;1.83;;
7657;SDS011;8462;53.156;8.220;2022-10-18T14:35:29;7.23;;;1.63;;
7657;SDS011;8462;53.156;8.220;2022-10-18T14:38:01;5.30;;;2.47;;
7657;SDS011;8462;53.156;8.220;2022-10-18T14:40:32;4.40;;;1.43;;
7657;SDS011;8462;53.156;8.220;2022-10-18T14:43:05;5.33;;;1.50;;
7657;SDS011;8462;53.156;8.220;2022-10-18T14:45:36;7.03;;;1.60;;
7657;SDS011;8462;53.156;8.220;2022-10-18T14:48:04;7.33;;;1.43;;
7657;SDS011;8462;53.156;8.220;2022-10-18T14:50:32;3.90;;;1.20;;
7657;SDS011;8462;53.156;8.220;2022-10-18T14:53:04;4.70;;;1.70;;
7657;SDS011;8462;53.156;8.220;2022-10-18T14:55:32;3.40;;;1.77;;
7657;SDS011;8462;53.156;8.220;2022-10-18T14:58:00;4.77;;;1.53;;
7657;SDS011;8462;53.156;8.220;2022-10-18T15:00:31;4.77;;;1.70;;
7657;SDS011;8462;53.156;8.220;2022-10-18T15:03:00;5.40;;;2.10;;
7657;SDS011;8462;53.156;8.220;2022-10-18T15:05:28;5.07;;;1.70;;
7657;SDS011;8462;53.156;8.220;2022-10-18T15:07:55;3.47;;;1.93;;
7657;SDS011;8462;53.156;8.220;2022-10-18T15:10:26;7.07;;;1.67;;
7657;SDS011;8462;53.156;8.220;2022-10-18T15:12:56;5.77;;;1.83;;
7657;SDS011;8462;53.156;8.220;2022-10-18T15:15:26;5.80;;;1.57;;
7657;SDS011;8462;53.156;8.220;2022-10-18T15:17:56;4.87;;;1.63;;
7657;SDS011;8462;53.156;8.220;2022-10-18T15:20:25;6.50;;;1.63;;
7657;SDS011;8462;53.156;8.220;2022-10-18T15:23:17;8.83;;;2.23;;
7657;SDS011;8462;53.156;8.220;2022-10-18T15:25:48;4.03;;;1.57;;
7657;SDS011;8462;53.156;8.220;2022-10-18T15:28:21;8.00;;;1.90;;
7657;SDS011;8462;53.156;8.220;2022-10-18T15:30:53;6.33;;;2.57;;
7657;SDS011;8462;53.156;8.220;2022-10-18T15:33:22;12.80;;;1.73;;
7657;SDS011;8462;53.156;8.220;2022-10-18T15:35:50;4.63;;;1.80;;
7657;SDS011;8462;53.156;8.220;2022-10-18T15:38:23;5.17;;;1.50;;
7657;SDS011;8462;53.156;8.220;2022-10-18T15:40:53;6.03;;;1.47;;
7657;SDS011;8462;53.156;8.220;2022-10-18T15:43:33;5.63;;;1.47;;
7657;SDS011;8462;53.156;8.220;2022-10-18T15:46:05;4.77;;;1.50;;
7657;SDS011;8462;53.156;8.220;2022-10-18T15:48:52;5.83;;;2.10;;
7657;SDS011;8462;53.156;8.220;2022-10-18T15:51:30;5.13;;;1.80;;
7657;SDS011;8462;53.156;8.220;2022-10-18T15:54:15;9.73;;;2.23;;
7657;SDS011;8462;53.156;8.220;2022-10-18T15:56:44;7.97;;;2.07;;
7657;SDS011;8462;53.156;8.220;2022-10-18T15:59:19;6.03;;;2.17;;
7657;SDS011;8462;53.156;8.220;2022-10-18T16:01:48;6.67;;;1.93;;